Time;durP1;ratioP1;P1;durP2;ratioP2;P2;SDS_P1;SDS_P2;PMS_P1;PMS_P2;Temp;Humidity;BMP_temperature;BMP_pressure;BME280_temperature;BME280_humidity;BME280_pressure;Samples;Min_cycle;Max_cycle;Signal;HPM_P1;HPM_P2
2021/08/07 00:00:44;;;;;;;2.23;2.03;;;;;;;20.54;100.00;95777.38;5032016;28;20199;-78
2021/08/07 00:03:13;;;;;;;2.20;2.00;;;;;;;20.45;100.00;95781.41;5032213;28;20226;-78
2021/08/07 00:05:40;;;;;;;1.70;1.60;;;;;;;20.44;100.00;95774.47;5032195;28;20202;-79
2021/08/07 00:08:07;;;;;;;1.73;1.63;;;;;;;20.47;100.00;95784.69;5031463;28;20664;-78
2021/08/07 00:10:34;;;;;;;3.47;2.00;;;;;;;20.42;100.00;95781.88;5031842;28;20264;-78
2021/08/07 00:13:02;;;;;;;1.70;1.60;;;;;;;20.35;100.00;95778.50;5031868;28;20265;-78
2021/08/07 00:15:29;;;;;;;2.90;2.03;;;;;;;20.30;100.00;95781.88;5031923;28;20245;-78
2021/08/07 00:17:57;;;;;;;1.93;1.83;;;;;;;20.32;100.00;95778.97;5031644;28;20198;-78
2021/08/07 00:20:26;;;;;;;1.60;1.50;;;;;;;20.31;100.00;95777.34;5031783;28;20198;-78
2021/08/07 00:22:54;;;;;;;2.70;2.00;;;;;;;20.30;100.00;95778.41;5031594;28;20198;-79
2021/08/07 00:25:21;;;;;;;3.60;1.77;;;;;;;20.40;100.00;95770.59;5035863;28;20198;-78
2021/08/07 00:27:49;;;;;;;2.10;1.97;;;;;;;20.33;100.00;95769.91;5035396;28;20278;-77
2021/08/07 00:30:17;;;;;;;2.13;1.93;;;;;;;20.33;100.00;95775.25;5035843;28;20281;-78
2021/08/07 00:32:44;;;;;;;1.83;1.73;;;;;;;20.36;100.00;95769.44;5035591;28;20226;-78
2021/08/07 00:35:11;;;;;;;1.80;1.70;;;;;;;20.29;100.00;95774.09;5035717;28;20256;-78
2021/08/07 00:37:40;;;;;;;1.60;1.50;;;;;;;20.27;100.00;95777.00;5035349;28;20256;-78
2021/08/07 00:40:09;;;;;;;19.20;2.73;;;;;;;20.29;100.00;95774.09;5035717;28;20635;-78
2021/08/07 00:42:36;;;;;;;1.47;1.37;;;;;;;20.32;100.00;95779.78;5035513;28;20241;-78
2021/08/07 00:45:04;;;;;;;2.90;1.90;;;;;;;20.34;100.00;95779.56;5035521;28;20238;-78
2021/08/07 00:47:31;;;;;;;1.80;1.70;;;;;;;20.34;100.00;95777.69;5035284;28;20762;-78
2021/08/07 00:49:59;;;;;;;1.70;1.60;;;;;;;20.32;100.00;95776.28;5035265;28;20746;-78
2021/08/07 00:52:26;;;;;;;2.80;1.83;;;;;;;20.22;100.00;95773.38;5035032;28;20269;-78
2021/08/07 00:54:56;;;;;;;2.23;2.03;;;;;;;20.24;100.00;95772.13;5035639;28;20198;-77
2021/08/07 00:57:23;;;;;;;2.00;1.90;;;;;;;20.18;100.00;95768.50;5035444;28;20260;-78
2021/08/07 00:59:50;;;;;;;2.20;2.00;;;;;;;20.25;100.00;95772.94;5035211;28;20229;-77
2021/08/07 01:02:20;;;;;;;2.10;1.90;;;;;;;20.24;100.00;95776.66;5035292;28;20241;-78
2021/08/07 01:04:57;;;;;;;1.63;1.53;;;;;;;20.12;100.00;95769.44;5035737;28;20239;-78
2021/08/07 01:07:32;;;;;;;1.70;1.60;;;;;;;20.08;100.00;95772.78;5034802;28;20197;-77
2021/08/07 01:10:10;;;;;;;1.73;1.57;;;;;;;20.07;100.00;95776.50;5035347;28;20218;-78
2021/08/07 01:12:46;;;;;;;2.13;1.80;;;;;;;20.02;100.00;95768.38;5034922;28;20187;-78
2021/08/07 01:15:17;;;;;;;1.97;1.87;;;;;;;20.07;100.00;95763.97;5034948;28;20277;-78
2021/08/07 01:17:47;;;;;;;2.03;1.83;;;;;;;20.10;100.00;95768.88;5034833;28;20249;-78
2021/08/07 01:20:17;;;;;;;2.10;1.90;;;;;;;20.06;100.00;95764.22;5034861;28;20195;-77
2021/08/07 01:22:53;;;;;;;2.17;1.67;;;;;;;19.94;100.00;95767.66;5034587;28;20289;-77
2021/08/07 01:25:27;;;;;;;3.70;1.60;;;;;;;19.86;100.00;95783.22;5034739;28;20182;-78
2021/08/07 01:27:56;;;;;;;2.67;2.47;;;;;;;19.85;100.00;95768.25;5034343;28;20191;-77
2021/08/07 01:30:24;;;;;;;2.50;2.30;;;;;;;19.78;100.00;95767.50;5034624;28;20203;-78
2021/08/07 01:32:54;;;;;;;2.77;1.90;;;;;;;19.79;100.00;95775.31;5034759;28;20272;-79
2021/08/07 01:35:22;;;;;;;1.70;1.60;;;;;;;19.74;100.00;95772.50;5033677;28;20187;-77
2021/08/07 01:37:49;;;;;;;1.60;1.50;;;;;;;19.68;100.00;95776.09;5034854;28;20254;-78
2021/08/07 01:40:18;;;;;;;1.87;1.77;;;;;;;19.70;100.00;95788.13;5034790;28;20245;-79
2021/08/07 01:42:46;;;;;;;2.23;1.90;;;;;;;19.65;100.00;95796.00;5034338;28;20238;-79
2021/08/07 01:45:14;;;;;;;1.90;1.80;;;;;;;19.67;100.00;95799.28;5034413;28;20195;-79
2021/08/07 01:47:44;;;;;;;2.20;2.00;;;;;;;19.68;100.00;95806.22;5034230;28;20252;-79
2021/08/07 01:50:18;;;;;;;1.93;1.83;;;;;;;19.60;100.00;95809.16;5034333;28;20238;-79
2021/08/07 01:52:48;;;;;;;3.43;2.20;;;;;;;19.65;100.00;95814.69;5034119;28;20258;-79
2021/08/07 01:55:21;;;;;;;3.03;1.57;;;;;;;19.61;100.00;95818.00;5034376;28;20222;-79
2021/08/07 01:57:56;;;;;;;3.03;1.63;;;;;;;19.65;100.00;95808.53;5033810;28;20710;-79
2021/08/07 02:00:25;;;;;;;1.73;1.63;;;;;;;19.46;100.00;95808.53;5034442;28;20288;-79
2021/08/07 02:02:54;;;;;;;3.30;1.73;;;;;;;19.37;100.00;95809.09;5034181;28;20257;-80
2021/08/07 02:05:23;;;;;;;2.37;1.53;;;;;;;19.50;100.00;95803.59;5034176;28;20206;-79
2021/08/07 02:07:52;;;;;;;1.67;1.57;;;;;;;19.49;100.00;95807.28;5033670;28;20321;-79
2021/08/07 02:10:20;;;;;;;3.10;1.70;;;;;;;19.52;100.00;95798.81;5033865;28;20197;-79
2021/08/07 02:12:49;;;;;;;3.40;1.90;;;;;;;19.47;100.00;95798.72;5034138;28;20206;-79
2021/08/07 02:15:19;;;;;;;1.90;1.80;;;;;;;19.56;100.00;95797.31;5033732;28;20232;-79
2021/08/07 02:17:49;;;;;;;1.67;1.57;;;;;;;19.57;100.00;95800.81;5033678;28;20256;-80
2021/08/07 02:20:18;;;;;;;3.10;1.80;;;;;;;19.42;100.00;95795.88;5033908;28;20237;-80
2021/08/07 02:22:49;;;;;;;2.63;2.03;;;;;;;19.38;100.00;95806.19;5033561;28;20203;-79
2021/08/07 02:25:17;;;;;;;1.80;1.70;;;;;;;19.34;100.00;95805.00;5033429;28;20179;-79
2021/08/07 02:27:44;;;;;;;2.27;2.07;;;;;;;19.33;100.00;95813.22;5033540;28;20289;-79
2021/08/07 02:30:12;;;;;;;3.00;2.00;;;;;;;19.30;100.00;95808.38;5033469;28;20645;-78
2021/08/07 02:32:42;;;;;;;2.40;1.70;;;;;;;19.20;100.00;95798.22;5033435;28;20226;-78
2021/08/07 02:35:13;;;;;;;3.73;1.80;;;;;;;19.21;100.00;95808.66;5033315;28;20227;-78
2021/08/07 02:37:42;;;;;;;1.70;1.60;;;;;;;19.31;100.00;95796.66;5033067;28;20185;-78
2021/08/07 02:40:11;;;;;;;1.80;1.70;;;;;;;19.35;100.00;95798.63;5033544;28;20257;-78
2021/08/07 02:42:40;;;;;;;2.70;1.67;;;;;;;19.29;100.00;95801.38;5033485;28;20301;-78
2021/08/07 02:45:08;;;;;;;1.90;1.70;;;;;;;19.29;100.00;95796.06;5033610;28;20202;-78
2021/08/07 02:47:36;;;;;;;3.00;1.77;;;;;;;19.26;100.00;95789.34;5031764;28;20199;-78
2021/08/07 02:50:05;;;;;;;1.93;1.80;;;;;;;19.33;100.00;95802.56;5033261;28;20191;-78
2021/08/07 02:52:35;;;;;;;1.87;1.77;;;;;;;19.27;100.00;95798.97;5032828;28;20241;-78
2021/08/07 02:55:03;;;;;;;1.87;1.73;;;;;;;19.31;100.00;95799.31;5033141;28;20584;-78
2021/08/07 02:57:30;;;;;;;2.70;1.80;;;;;;;19.35;100.00;95801.31;5032982;28;20199;-79
2021/08/07 02:59:58;;;;;;;1.83;1.73;;;;;;;19.33;100.00;95803.41;5033065;28;20203;-79
2021/08/07 03:02:26;;;;;;;2.10;1.90;;;;;;;19.34;100.00;95809.53;5032832;28;20288;-78
2021/08/07 03:04:53;;;;;;;2.20;1.83;;;;;;;19.40;100.00;95809.44;5032762;28;20257;-79
2021/08/07 03:07:21;;;;;;;2.13;1.93;;;;;;;19.40;100.00;95811.31;5032652;28;20229;-78
2021/08/07 03:09:50;;;;;;;2.10;2.00;;;;;;;19.44;100.00;95809.81;5033364;28;20237;-78
2021/08/07 03:12:18;;;;;;;1.77;1.63;;;;;;;19.30;100.00;95803.84;5032584;28;20199;-78
2021/08/07 03:14:45;;;;;;;2.23;1.50;;;;;;;19.25;100.00;95807.16;5032568;28;20222;-78
2021/08/07 03:17:12;;;;;;;3.10;1.90;;;;;;;19.29;100.00;95818.19;5032349;28;20599;-78
2021/08/07 03:19:40;;;;;;;2.07;1.77;;;;;;;19.33;100.00;95815.88;5015081;28;20664;-81
2021/08/07 03:22:07;;;;;;;1.70;1.60;;;;;;;19.34;100.00;95820.19;5012547;28;20199;-80
2021/08/07 03:24:34;;;;;;;2.33;1.93;;;;;;;19.31;100.00;95809.97;5012847;28;20289;-81
2021/08/07 03:27:03;;;;;;;1.70;1.60;;;;;;;19.37;100.00;95812.56;5012669;28;20273;-80
2021/08/07 03:29:30;;;;;;;2.40;1.90;;;;;;;19.37;100.00;95825.06;5012677;28;20210;-80
2021/08/07 03:31:58;;;;;;;2.73;1.70;;;;;;;19.41;100.00;95834.25;5011796;28;20287;-79
2021/08/07 03:34:25;;;;;;;3.10;2.17;;;;;;;19.43;100.00;95842.81;5012274;28;20638;-80
2021/08/07 03:36:52;;;;;;;2.70;1.87;;;;;;;19.41;100.00;95851.03;5012133;28;20238;-80
2021/08/07 03:39:20;;;;;;;2.23;1.90;;;;;;;19.44;100.00;95860.44;5012814;28;20206;-80
2021/08/07 03:41:47;;;;;;;2.50;2.27;;;;;;;19.51;100.00;95871.84;5011880;28;20633;-80
2021/08/07 03:44:16;;;;;;;1.83;1.70;;;;;;;19.55;100.00;95881.00;5012641;28;20222;-79
2021/08/07 03:46:44;;;;;;;1.73;1.63;;;;;;;19.53;100.00;95880.41;5012129;28;20199;-81
2021/08/07 03:49:12;;;;;;;2.47;2.27;;;;;;;19.51;100.00;95889.69;5016345;28;20268;-82
2021/08/07 03:51:39;;;;;;;2.13;2.00;;;;;;;19.52;100.00;95885.97;5016678;28;20326;-81
2021/08/07 03:54:06;;;;;;;1.90;1.80;;;;;;;19.57;100.00;95889.59;5011805;28;20303;-79
2021/08/07 03:56:33;;;;;;;1.90;1.80;;;;;;;19.46;100.00;95887.66;5014413;28;20200;-81
2021/08/07 03:59:01;;;;;;;2.10;1.90;;;;;;;19.52;100.00;95893.97;5016442;28;20217;-82
2021/08/07 04:01:29;;;;;;;2.50;1.90;;;;;;;19.57;100.00;95900.28;5025000;28;20214;-82
2021/08/07 04:03:57;;;;;;;2.23;2.13;;;;;;;19.57;100.00;95900.28;5031479;28;20198;-82
2021/08/07 04:06:24;;;;;;;2.03;1.93;;;;;;;19.57;100.00;95904.75;5032180;28;20194;-81
2021/08/07 04:08:51;;;;;;;2.13;1.93;;;;;;;19.79;100.00;95913.16;5031781;28;20198;-81
2021/08/07 04:11:19;;;;;;;2.30;2.10;;;;;;;19.77;100.00;95917.88;5031762;28;20206;-81
2021/08/07 04:13:46;;;;;;;1.93;1.70;;;;;;;19.78;100.00;95925.69;5031583;28;20199;-82
2021/08/07 04:16:13;;;;;;;2.23;2.13;;;;;;;19.74;100.00;95926.34;5031734;28;20297;-81
2021/08/07 04:18:42;;;;;;;2.17;1.77;;;;;;;19.57;100.00;95934.94;5031950;28;20580;-83
2021/08/07 04:21:11;;;;;;;2.23;2.03;;;;;;;19.59;100.00;95938.16;5031586;28;20191;-80
2021/08/07 04:23:38;;;;;;;2.00;1.90;;;;;;;19.63;100.00;95939.38;5024964;28;20199;-82
2021/08/07 04:26:06;;;;;;;3.10;1.87;;;;;;;19.69;100.00;95951.00;5023202;28;20199;-81
2021/08/07 04:28:33;;;;;;;2.40;2.20;;;;;;;19.74;100.00;95964.47;5031789;28;20195;-82
2021/08/07 04:31:00;;;;;;;2.40;2.20;;;;;;;19.81;100.00;95967.06;5031833;28;20198;-82
2021/08/07 04:33:27;;;;;;;2.00;1.80;;;;;;;19.82;100.00;95966.03;5031772;28;20202;-81
2021/08/07 04:35:56;;;;;;;2.90;2.30;;;;;;;19.89;100.00;95972.09;5031466;28;20230;-81
2021/08/07 04:38:23;;;;;;;2.10;1.90;;;;;;;19.88;100.00;95983.78;5031161;28;20195;-81
2021/08/07 04:40:51;;;;;;;2.40;2.20;;;;;;;20.06;100.00;95983.78;5031885;28;20194;-81
2021/08/07 04:43:18;;;;;;;3.97;1.90;;;;;;;19.83;100.00;95984.47;5031375;28;20206;-81
2021/08/07 04:45:45;;;;;;;4.27;2.10;;;;;;;19.87;100.00;95998.97;5031896;28;20577;-81
2021/08/07 04:48:13;;;;;;;1.97;1.87;;;;;;;19.91;100.00;96007.34;5031619;28;20203;-81
2021/08/07 04:50:41;;;;;;;2.83;2.50;;;;;;;19.94;100.00;96001.56;5031497;28;20285;-80
2021/08/07 04:53:10;;;;;;;4.17;2.00;;;;;;;19.98;100.00;96008.09;5031093;28;20685;-80
2021/08/07 04:55:37;;;;;;;3.30;2.00;;;;;;;20.02;100.00;96009.28;5031731;28;20244;-78
2021/08/07 04:58:05;;;;;;;2.97;1.70;;;;;;;20.02;100.00;96013.78;5031083;28;20718;-79
2021/08/07 05:00:32;;;;;;;1.90;1.80;;;;;;;20.01;100.00;96020.16;5031423;28;20253;-79
2021/08/07 05:03:00;;;;;;;2.00;1.90;;;;;;;20.05;100.00;96024.81;5036115;28;20234;-78
2021/08/07 05:05:27;;;;;;;3.73;2.07;;;;;;;20.10;100.00;96019.66;5031331;28;20199;-77
2021/08/07 05:07:54;;;;;;;8.43;2.63;;;;;;;20.09;100.00;96028.69;5030872;28;20319;-79
2021/08/07 05:10:23;;;;;;;2.13;2.00;;;;;;;20.11;100.00;96029.28;5032159;28;20701;-78
2021/08/07 05:12:50;;;;;;;1.73;1.63;;;;;;;20.09;100.00;96026.03;5035119;28;20569;-78
2021/08/07 05:15:17;;;;;;;1.80;1.70;;;;;;;20.19;100.00;96023.66;5034691;28;20262;-77
2021/08/07 05:17:45;;;;;;;1.97;1.83;;;;;;;20.30;100.00;96037.28;5034797;28;20231;-78
2021/08/07 05:20:13;;;;;;;3.27;2.20;;;;;;;20.33;100.00;96032.28;5034768;28;20241;-79
2021/08/07 05:22:40;;;;;;;2.13;1.93;;;;;;;20.40;100.00;96038.34;5034641;28;20758;-78
2021/08/07 05:25:08;;;;;;;2.80;2.00;;;;;;;20.47;100.00;96048.94;5034784;28;20234;-79
2021/08/07 05:27:37;;;;;;;2.70;2.13;;;;;;;20.56;100.00;96052.94;5034370;28;20238;-79
2021/08/07 05:30:05;;;;;;;3.27;1.80;;;;;;;20.61;100.00;96052.28;5034881;28;20248;-79
2021/08/07 05:32:33;;;;;;;1.67;1.57;;;;;;;20.66;100.00;96063.91;5034401;28;20289;-79
2021/08/07 05:35:00;;;;;;;2.07;1.90;;;;;;;20.74;100.00;96072.63;5034148;28;20325;-79
2021/08/07 05:37:27;;;;;;;4.70;2.10;;;;;;;20.83;100.00;96069.41;5034632;28;20282;-78
2021/08/07 05:39:54;;;;;;;3.47;2.17;;;;;;;20.89;100.00;96073.03;5034353;28;20234;-80
2021/08/07 05:42:22;;;;;;;3.47;1.93;;;;;;;20.96;100.00;96079.09;5034453;28;20249;-79
2021/08/07 05:44:50;;;;;;;2.13;1.90;;;;;;;21.09;100.00;96086.06;5034489;28;20194;-80
2021/08/07 05:47:18;;;;;;;1.80;1.70;;;;;;;21.12;100.00;96094.44;5034144;28;20292;-79
2021/08/07 05:49:45;;;;;;;3.00;1.70;;;;;;;21.26;100.00;96088.91;5034290;28;20266;-79
2021/08/07 05:52:12;;;;;;;1.73;1.63;;;;;;;21.36;100.00;96089.19;5033909;28;20328;-79
2021/08/07 05:54:39;;;;;;;2.70;2.17;;;;;;;21.51;100.00;96094.06;5033999;28;20318;-79
2021/08/07 05:57:06;;;;;;;2.93;2.03;;;;;;;21.53;100.00;96095.47;5034332;28;20203;-78
2021/08/07 05:59:34;;;;;;;2.63;1.50;;;;;;;21.62;100.00;96095.16;5034177;28;20213;-78
2021/08/07 06:02:03;;;;;;;2.43;1.70;;;;;;;21.75;100.00;96102.91;5033921;28;20206;-79
2021/08/07 06:04:30;;;;;;;2.17;2.07;;;;;;;21.91;100.00;96096.06;5034322;28;20202;-79
2021/08/07 06:06:57;;;;;;;1.47;1.33;;;;;;;21.94;100.00;96107.09;5033756;28;20198;-78
2021/08/07 06:09:25;;;;;;;2.00;1.60;;;;;;;22.08;100.00;96107.66;5034250;28;20220;-79
2021/08/07 06:11:52;;;;;;;2.67;2.00;;;;;;;22.16;100.00;96111.88;5033964;28;20207;-79
2021/08/07 06:14:20;;;;;;;2.10;1.80;;;;;;;22.37;100.00;96111.25;5033588;28;20206;-79
2021/08/07 06:16:47;;;;;;;1.80;1.70;;;;;;;22.35;100.00;96112.56;5033572;28;20201;-79
2021/08/07 06:19:16;;;;;;;1.63;1.53;;;;;;;22.40;100.00;96116.13;5033988;28;20203;-79
2021/08/07 06:21:43;;;;;;;2.20;1.67;;;;;;;22.56;100.00;96111.91;5033505;28;20198;-78
2021/08/07 06:24:11;;;;;;;4.23;1.90;;;;;;;22.63;100.00;96117.13;5033363;28;20211;-79
2021/08/07 06:26:38;;;;;;;4.53;1.87;;;;;;;22.85;100.00;96120.75;5033532;28;20195;-79
2021/08/07 06:29:05;;;;;;;5.20;2.27;;;;;;;22.92;100.00;96117.94;5033861;28;20199;-79
2021/08/07 06:31:33;;;;;;;1.87;1.60;;;;;;;22.98;100.00;96128.53;5033826;28;20194;-79
2021/08/07 06:34:00;;;;;;;2.67;2.47;;;;;;;22.97;100.00;96136.81;5033427;28;20201;-79
2021/08/07 06:36:28;;;;;;;4.07;1.97;;;;;;;23.02;100.00;96136.91;5033405;28;20222;-79
2021/08/07 06:38:56;;;;;;;1.73;1.63;;;;;;;23.05;100.00;96143.66;5033284;28;20198;-79
2021/08/07 06:41:23;;;;;;;2.03;1.83;;;;;;;23.36;100.00;96140.47;5033557;28;20198;-79
2021/08/07 06:43:50;;;;;;;1.90;1.80;;;;;;;23.63;100.00;96150.56;5033148;28;20198;-79
2021/08/07 06:46:17;;;;;;;1.90;1.60;;;;;;;23.71;100.00;96142.13;5033294;28;20198;-79
2021/08/07 06:48:45;;;;;;;1.57;1.47;;;;;;;24.00;100.00;96139.31;5033046;28;20206;-79
2021/08/07 06:51:12;;;;;;;1.83;1.73;;;;;;;24.28;100.00;96141.06;5033187;28;20587;-80
2021/08/07 06:53:40;;;;;;;8.53;2.30;;;;;;;24.41;100.00;96136.16;5032930;28;20194;-79
2021/08/07 06:56:08;;;;;;;2.00;1.70;;;;;;;24.42;100.00;96148.56;5032741;28;20230;-80
2021/08/07 06:58:35;;;;;;;3.07;1.67;;;;;;;24.35;100.00;96150.59;5033205;28;20202;-79
2021/08/07 07:01:02;;;;;;;2.00;1.90;;;;;;;24.40;100.00;96131.88;5032950;28;20202;-79
2021/08/07 07:03:29;;;;;;;1.80;1.70;;;;;;;24.29;100.00;96137.34;5032798;28;20214;-79
2021/08/07 07:05:57;;;;;;;2.10;1.90;;;;;;;24.16;100.00;96130.44;5033811;28;20194;-79
2021/08/07 07:08:24;;;;;;;1.60;1.50;;;;;;;24.16;100.00;96138.50;5033430;28;20679;-79
2021/08/07 07:10:53;;;;;;;2.80;1.90;;;;;;;24.33;100.00;96141.94;5035562;28;20302;-79
2021/08/07 07:13:20;;;;;;;3.67;1.93;;;;;;;24.28;100.00;96147.28;5034457;28;20198;-79
2021/08/07 07:15:47;;;;;;;2.33;1.50;;;;;;;24.53;100.00;96138.75;5033721;28;21160;-79
2021/08/07 07:18:14;;;;;;;3.10;1.70;;;;;;;24.95;100.00;96158.84;5033431;28;20671;-79
2021/08/07 07:20:42;;;;;;;1.60;1.50;;;;;;;25.30;100.00;96159.25;5033684;28;20198;-79
2021/08/07 07:23:10;;;;;;;2.73;1.83;;;;;;;25.46;100.00;96156.69;5033451;28;20687;-79
2021/08/07 07:25:37;;;;;;;2.17;1.50;;;;;;;25.75;100.00;96152.63;5033650;28;20191;-79
2021/08/07 07:28:06;;;;;;;2.37;1.80;;;;;;;25.49;100.00;96156.16;5033052;28;20209;-79
2021/08/07 07:30:33;;;;;;;1.30;1.30;;;;;;;25.71;100.00;96156.09;5033531;28;20580;-79
2021/08/07 07:33:00;;;;;;;1.97;1.83;;;;;;;25.47;100.00;96150.25;5033229;28;20194;-79
2021/08/07 07:35:28;;;;;;;2.60;1.47;;;;;;;25.65;100.00;96154.44;5033089;28;20226;-79
2021/08/07 07:37:55;;;;;;;2.87;1.57;;;;;;;26.05;100.00;96159.34;5032576;28;20199;-78
2021/08/07 07:40:22;;;;;;;1.60;1.50;;;;;;;25.90;100.00;96170.00;5033746;28;20202;-79
2021/08/07 07:42:49;;;;;;;1.80;1.60;;;;;;;26.06;100.00;96166.34;5033027;28;20208;-79
2021/08/07 07:45:18;;;;;;;2.83;1.85;;;;;;;26.11;100.00;96187.09;5033139;28;20195;-79
2021/08/07 07:47:45;;;;;;;1.57;1.47;;;;;;;25.59;100.00;96181.28;5032793;28;20195;-78
2021/08/07 07:50:13;;;;;;;2.73;1.50;;;;;;;26.09;100.00;96182.81;5032864;28;20199;-79
2021/08/07 07:52:42;;;;;;;1.55;1.45;;;;;;;26.72;100.00;96188.28;5032118;28;20788;-80
2021/08/07 07:55:10;;;;;;;2.58;1.52;;;;;;;26.71;100.00;96184.00;5032601;28;20261;-79
2021/08/07 07:57:37;;;;;;;1.80;1.70;;;;;;;26.88;100.00;96188.34;5032886;28;20201;-79
2021/08/07 08:00:05;;;;;;;2.15;1.50;;;;;;;26.99;100.00;96190.84;5032466;28;20210;-79
2021/08/07 08:02:34;;;;;;;1.60;1.50;;;;;;;26.79;100.00;96183.47;5032118;28;20198;-79
2021/08/07 08:05:01;;;;;;;2.97;1.55;;;;;;;26.66;100.00;96181.25;5033064;28;20579;-79
2021/08/07 08:07:29;;;;;;;1.55;1.45;;;;;;;26.51;100.00;96167.72;5032287;28;20205;-79
2021/08/07 08:09:56;;;;;;;4.10;1.75;;;;;;;26.66;100.00;96181.25;5032472;28;20194;-79
2021/08/07 08:12:23;;;;;;;1.90;1.63;;;;;;;26.64;100.00;96179.91;5032274;28;20213;-80
2021/08/07 08:14:50;;;;;;;1.83;1.73;;;;;;;27.09;100.00;96173.03;5031879;28;20195;-79
2021/08/07 08:17:17;;;;;;;1.63;1.40;;;;;;;26.62;100.00;96169.38;5031735;28;20198;-79
2021/08/07 08:19:46;;;;;;;1.58;1.45;;;;;;;26.61;100.00;96173.16;5031560;28;20195;-79
2021/08/07 08:22:13;;;;;;;2.35;1.52;;;;;;;26.70;100.00;96171.56;5031892;28;20202;-79
2021/08/07 08:24:40;;;;;;;3.67;1.73;;;;;;;26.55;100.00;96175.00;5031707;28;20203;-79
2021/08/07 08:27:08;;;;;;;1.80;1.48;;;;;;;26.54;100.00;96173.41;5031440;28;20199;-79
2021/08/07 08:29:35;;;;;;;1.85;1.52;;;;;;;26.62;100.00;96171.28;5031938;28;20571;-79
2021/08/07 08:32:02;;;;;;;2.55;2.00;;;;;;;26.65;100.00;96173.44;5031501;28;20294;-79
2021/08/07 08:34:29;;;;;;;1.45;1.45;;;;;;;26.52;100.00;96180.13;5031485;28;20685;-79
2021/08/07 08:36:58;;;;;;;1.50;1.40;;;;;;;27.05;100.00;96175.47;5031723;28;20226;-79
2021/08/07 08:39:25;;;;;;;1.52;1.42;;;;;;;27.43;100.00;96162.63;5031576;28;20201;-80
2021/08/07 08:41:52;;;;;;;9.18;6.70;;;;;;;27.08;100.00;96160.63;5031390;28;20203;-79
2021/08/07 08:44:20;;;;;;;2.30;2.10;;;;;;;27.12;100.00;96161.72;5032642;28;20202;-79
2021/08/07 08:46:47;;;;;;;3.67;2.30;;;;;;;27.15;100.00;96166.63;5035358;28;20194;-79
2021/08/07 08:49:16;;;;;;;3.22;2.92;;;;;;;27.43;100.00;96165.31;5035465;28;20205;-79
2021/08/07 08:51:45;;;;;;;8.07;2.88;;;;;;;27.41;100.00;96159.41;5035251;28;20230;-79
2021/08/07 08:54:14;;;;;;;4.85;3.45;;;;;;;27.45;100.00;96160.47;5035401;28;20232;-79
2021/08/07 08:56:41;;;;;;;4.65;1.90;;;;;;;27.25;100.00;96156.66;5035064;28;20225;-79
2021/08/07 08:59:09;;;;;;;4.28;2.00;;;;;;;27.38;100.00;96157.22;5035270;28;20198;-80
2021/08/07 09:01:38;;;;;;;4.20;2.65;;;;;;;27.71;100.00;96148.63;5035146;28;20209;-80
2021/08/07 09:04:05;;;;;;;9.05;6.00;;;;;;;28.12;100.00;96148.59;5035608;28;20199;-80
2021/08/07 09:06:34;;;;;;;1.85;1.75;;;;;;;27.36;100.00;96143.19;5034880;28;20198;-80
2021/08/07 09:09:03;;;;;;;1.90;1.80;;;;;;;27.10;100.00;96151.22;5035119;28;20199;-79
2021/08/07 09:11:32;;;;;;;1.55;1.45;;;;;;;27.03;100.00;96150.66;5034907;28;20289;-79
2021/08/07 09:14:23;;;;;;;7.35;6.60;;;;;;;27.61;100.00;96147.81;5034707;28;20195;-80
2021/08/07 09:17:06;;;;;;;1.85;1.75;;;;;;;27.47;100.00;96152.94;5035019;28;20207;-79
2021/08/07 09:19:59;;;;;;;2.55;2.30;;;;;;;27.02;100.00;96141.75;5035441;28;20202;-78
2021/08/07 09:22:31;;;;;;;2.30;2.15;;;;;;;27.44;100.00;96145.38;5015953;28;20199;-77
2021/08/07 09:25:07;;;;;;;7.32;5.60;;;;;;;27.52;100.00;96155.63;5034872;28;20301;-80
2021/08/07 09:27:37;;;;;;;2.60;1.92;;;;;;;27.84;100.00;96149.16;5034746;28;20277;-79
2021/08/07 09:30:26;;;;;;;5.10;1.70;;;;;;;27.65;100.00;96149.69;5034974;28;20198;-79
2021/08/07 09:32:55;;;;;;;1.90;1.50;;;;;;;27.39;100.00;96156.13;5034353;28;20222;-79
2021/08/07 09:35:24;;;;;;;2.83;1.60;;;;;;;27.48;100.00;96141.03;5034514;28;20293;-78
2021/08/07 09:38:05;;;;;;;1.77;1.55;;;;;;;27.30;100.00;96130.78;5034295;28;20198;-78
2021/08/07 09:40:40;;;;;;;1.60;1.50;;;;;;;27.44;100.00;96132.69;5034835;28;20195;-79
2021/08/07 09:43:10;;;;;;;2.33;1.45;;;;;;;27.57;100.00;96139.41;5034049;28;20183;-79
2021/08/07 09:45:39;;;;;;;1.55;1.45;;;;;;;27.32;100.00;96131.31;5034394;28;20290;-78
2021/08/07 09:48:08;;;;;;;3.42;1.60;;;;;;;27.86;100.00;96134.31;5034123;28;20286;-78
2021/08/07 09:50:36;;;;;;;1.77;1.67;;;;;;;28.06;100.00;96128.09;5034458;28;20286;-79
2021/08/07 09:53:05;;;;;;;1.42;1.40;;;;;;;27.89;100.00;96141.06;5033703;28;20231;-78
2021/08/07 09:55:34;;;;;;;2.92;1.17;;;;;;;27.25;100.00;96135.06;5034206;28;20329;-78
2021/08/07 09:58:03;;;;;;;2.58;1.63;;;;;;;27.42;100.00;96134.03;5033493;28;20233;-78
2021/08/07 10:00:40;;;;;;;1.55;1.42;;;;;;;27.80;100.00;96137.28;5034202;28;20762;-78
2021/08/07 10:03:16;;;;;;;2.58;2.17;;;;;;;27.95;100.00;96127.28;5034046;28;20230;-78
2021/08/07 10:05:44;;;;;;;1.40;1.30;;;;;;;28.09;100.00;96124.84;5034052;28;20208;-79
2021/08/07 10:08:12;;;;;;;1.60;1.50;;;;;;;27.78;100.00;96125.94;5033907;28;20198;-79
2021/08/07 10:10:40;;;;;;;1.38;1.27;;;;;;;27.76;100.00;96134.31;5034243;28;20230;-79
2021/08/07 10:13:07;;;;;;;1.75;1.65;;;;;;;28.09;100.00;96138.34;5033490;28;20285;-79
2021/08/07 10:15:37;;;;;;;2.08;1.90;;;;;;;28.20;100.00;96133.72;5033691;28;20203;-78
2021/08/07 10:18:06;;;;;;;1.63;1.52;;;;;;;28.50;100.00;96138.25;5032519;28;20199;-77
2021/08/07 10:20:35;;;;;;;2.75;1.50;;;;;;;28.78;100.00;96150.31;5032710;28;20202;-78
2021/08/07 10:23:03;;;;;;;1.58;1.48;;;;;;;28.51;100.00;96149.88;5033577;28;20203;-78
2021/08/07 10:25:30;;;;;;;1.50;1.40;;;;;;;28.76;100.00;96162.50;5033628;28;20233;-78
2021/08/07 10:27:59;;;;;;;1.50;1.40;;;;;;;29.07;100.00;96160.50;5033851;28;20663;-78
2021/08/07 10:30:29;;;;;;;1.70;1.40;;;;;;;29.31;100.00;96156.00;5033363;28;20209;-78
2021/08/07 10:32:58;;;;;;;1.67;1.42;;;;;;;28.86;100.00;96167.88;5033543;28;20201;-78
2021/08/07 10:35:28;;;;;;;3.10;1.23;;;;;;;27.84;100.00;96168.06;5033462;28;20203;-78
2021/08/07 10:37:56;;;;;;;1.77;1.67;;;;;;;28.50;100.00;96168.00;5033238;28;20729;-78
2021/08/07 10:40:24;;;;;;;2.03;1.48;;;;;;;29.08;100.00;96170.22;5033559;28;20622;-78
2021/08/07 10:42:53;;;;;;;1.60;1.50;;;;;;;29.46;100.00;96165.94;5033175;28;20209;-78
2021/08/07 10:45:21;;;;;;;1.63;1.52;;;;;;;29.70;100.00;96159.84;5033661;28;20206;-78
2021/08/07 10:47:50;;;;;;;1.50;1.40;;;;;;;29.27;100.00;96162.25;5033033;28;20230;-78
2021/08/07 10:50:37;;;;;;;2.15;1.50;;;;;;;28.91;100.00;96159.72;5033469;28;20209;-78
2021/08/07 10:53:07;;;;;;;1.65;1.30;;;;;;;29.11;100.00;96151.53;5032539;28;20238;-78
2021/08/07 10:55:47;;;;;;;1.73;1.63;;;;;;;29.73;100.00;96148.44;5033665;28;20222;-78
2021/08/07 10:58:38;;;;;;;2.70;1.67;;;;;;;30.17;100.00;96147.47;5032972;28;20183;-78
2021/08/07 11:01:31;;;;;;;2.20;1.40;;;;;;;30.53;100.00;96145.22;5033347;28;20229;-79
2021/08/07 11:04:20;;;;;;;1.67;1.58;;;;;;;30.71;100.00;96136.31;5032580;28;20191;-79
2021/08/07 11:07:01;;;;;;;1.50;1.40;;;;;;;30.51;100.00;96150.94;5027534;28;20194;-79
2021/08/07 11:09:31;;;;;;;1.70;1.60;;;;;;;30.27;100.00;96148.22;5031851;28;20643;-79
2021/08/07 11:12:29;;;;;;;1.60;1.50;;;;;;;30.35;100.00;96141.38;5032876;28;20183;-78
2021/08/07 11:14:59;;;;;;;1.48;1.38;;;;;;;30.42;100.00;96144.53;5032778;28;20202;-79
2021/08/07 11:17:41;;;;;;;1.40;1.20;;;;;;;30.39;100.00;96136.97;5032642;28;20359;-79
2021/08/07 11:20:35;;;;;;;1.80;1.70;;;;;;;30.44;100.00;96138.81;5032517;28;20283;-78
2021/08/07 11:23:09;;;;;;;1.20;1.20;;;;;;;30.16;100.00;96141.25;5032153;28;20190;-78
2021/08/07 11:26:06;;;;;;;1.38;1.33;;;;;;;30.29;100.00;96132.47;5032613;28;20211;-78
2021/08/07 11:28:55;;;;;;;1.60;1.50;;;;;;;30.23;100.00;96140.94;5032346;28;20686;-78
2021/08/07 11:31:23;;;;;;;2.42;1.48;;;;;;;30.30;100.00;96136.78;5032180;28;20745;-78
2021/08/07 11:34:27;;;;;;;1.50;1.40;;;;;;;30.45;100.00;96137.75;5032016;28;20191;-78